Time;durP1;ratioP1;P1;durP2;ratioP2;P2;SDS_P1;SDS_P2;PMS_P1;PMS_P2;Temp;Humidity;BMP_temperature;BMP_pressure;BME280_temperature;BME280_humidity;BME280_pressure;Samples;Min_cycle;Max_cycle;Signal;HPM_P1;HPM_P2
2022/07/07 00:00:07;;;;;;;10.45;5.45;;;;;;;;;;5011566;28;20054;-74
2022/07/07 00:02:33;;;;;;;10.63;5.90;;;;;;;;;;5011662;28;20037;-74
2022/07/07 00:04:59;;;;;;;8.93;5.70;;;;;;;;;;5011533;28;20037;-74
2022/07/07 00:07:25;;;;;;;12.77;6.53;;;;;;;;;;5015633;28;20017;-74
2022/07/07 00:09:52;;;;;;;11.68;5.78;;;;;;;;;;5031349;28;20078;-74
2022/07/07 00:12:18;;;;;;;9.90;5.53;;;;;;;;;;5031389;28;20444;-74
2022/07/07 00:14:44;;;;;;;11.18;6.13;;;;;;;;;;5031088;28;20022;-74
2022/07/07 00:17:11;;;;;;;8.32;5.90;;;;;;;;;;5027787;28;20105;-74
2022/07/07 00:19:37;;;;;;;14.45;6.25;;;;;;;;;;5015113;28;20029;-74
2022/07/07 00:22:03;;;;;;;13.20;6.53;;;;;;;;;;5015048;28;20084;-74
2022/07/07 00:24:29;;;;;;;11.55;6.97;;;;;;;;;;5015085;28;20469;-74
2022/07/07 00:26:55;;;;;;;12.75;6.85;;;;;;;;;;5014888;28;20088;-74
2022/07/07 00:29:21;;;;;;;15.13;7.65;;;;;;;;;;5014868;28;20061;-74
2022/07/07 00:31:47;;;;;;;14.95;7.32;;;;;;;;;;5014866;28;20022;-74
2022/07/07 00:34:13;;;;;;;15.00;7.00;;;;;;;;;;5014782;28;20022;-74
2022/07/07 00:36:41;;;;;;;13.73;7.72;;;;;;;;;;5014720;28;20045;-75
2022/07/07 00:39:07;;;;;;;16.88;8.27;;;;;;;;;;5014800;28;20366;-74
2022/07/07 00:41:34;;;;;;;13.40;7.40;;;;;;;;;;5013369;28;20116;-74
2022/07/07 00:44:00;;;;;;;19.02;7.20;;;;;;;;;;5014704;28;20030;-74
2022/07/07 00:46:32;;;;;;;13.77;7.50;;;;;;;;;;5014406;28;20132;-74
2022/07/07 00:48:58;;;;;;;14.48;7.43;;;;;;;;;;5014553;28;20461;-74
2022/07/07 00:51:24;;;;;;;14.93;8.45;;;;;;;;;;5014320;28;20080;-74
2022/07/07 00:53:50;;;;;;;13.35;8.05;;;;;;;;;;5014593;28;20038;-74
2022/07/07 00:56:16;;;;;;;12.07;7.82;;;;;;;;;;5014428;28;20026;-74
2022/07/07 00:58:42;;;;;;;14.93;7.88;;;;;;;;;;5014414;28;20029;-74
2022/07/07 01:01:08;;;;;;;18.17;7.68;;;;;;;;;;5014318;28;20030;-74
2022/07/07 01:03:34;;;;;;;13.57;8.15;;;;;;;;;;5014303;28;20091;-74
2022/07/07 01:06:02;;;;;;;14.20;8.15;;;;;;;;;;5014133;28;20025;-74
2022/07/07 01:08:28;;;;;;;17.70;8.07;;;;;;;;;;5026896;28;20035;-74
2022/07/07 01:10:54;;;;;;;15.38;7.50;;;;;;;;;;5034031;28;20025;-74
2022/07/07 01:13:20;;;;;;;17.35;7.50;;;;;;;;;;5033869;28;20111;-74
2022/07/07 01:15:46;;;;;;;18.70;8.90;;;;;;;;;;5033776;28;20021;-75
2022/07/07 01:18:12;;;;;;;16.95;7.85;;;;;;;;;;5020671;28;20026;-74
2022/07/07 01:20:41;;;;;;;12.18;7.97;;;;;;;;;;5013833;28;20025;-74
2022/07/07 01:23:07;;;;;;;15.13;7.90;;;;;;;;;;5013990;28;20129;-74
2022/07/07 01:25:33;;;;;;;13.82;6.93;;;;;;;;;;5013840;28;20022;-74
2022/07/07 01:27:59;;;;;;;15.23;8.30;;;;;;;;;;5013513;28;20033;-74
2022/07/07 01:30:25;;;;;;;12.63;7.28;;;;;;;;;;5013185;28;20046;-74
2022/07/07 01:32:51;;;;;;;10.10;6.85;;;;;;;;;;5013739;28;20180;-74
2022/07/07 01:35:17;;;;;;;11.93;6.60;;;;;;;;;;5013522;28;20032;-74
2022/07/07 01:37:43;;;;;;;12.63;5.97;;;;;;;;;;5013708;28;20476;-74
2022/07/07 01:40:09;;;;;;;12.35;6.15;;;;;;;;;;5013632;28;20021;-74
2022/07/07 01:42:35;;;;;;;10.02;5.72;;;;;;;;;;5013594;28;20022;-74
2022/07/07 01:45:01;;;;;;;15.30;5.93;;;;;;;;;;5011962;28;20072;-74
2022/07/07 01:47:28;;;;;;;14.95;5.95;;;;;;;;;;5013493;28;20026;-74
2022/07/07 01:49:54;;;;;;;14.45;5.43;;;;;;;;;;5013318;28;20033;-74
2022/07/07 01:52:20;;;;;;;14.40;5.30;;;;;;;;;;5013443;28;20026;-74
2022/07/07 01:54:46;;;;;;;13.30;5.22;;;;;;;;;;5013293;28;20037;-74
2022/07/07 01:57:13;;;;;;;10.55;4.75;;;;;;;;;;5013377;28;20033;-74
2022/07/07 01:59:39;;;;;;;11.43;4.53;;;;;;;;;;5013292;28;20028;-74
2022/07/07 02:02:05;;;;;;;10.77;3.35;;;;;;;;;;5013137;28;20025;-74
2022/07/07 02:04:31;;;;;;;8.63;3.38;;;;;;;;;;5013230;28;20111;-74
2022/07/07 02:06:57;;;;;;;8.90;3.20;;;;;;;;;;5011850;28;20381;-74
2022/07/07 02:09:23;;;;;;;7.18;2.80;;;;;;;;;;5032762;28;20053;-74
2022/07/07 02:11:49;;;;;;;8.73;2.20;;;;;;;;;;5032766;28;20021;-74
2022/07/07 02:14:15;;;;;;;4.53;1.92;;;;;;;;;;5032669;28;20415;-74
2022/07/07 02:16:42;;;;;;;4.82;1.75;;;;;;;;;;5031711;28;20030;-74
2022/07/07 02:19:08;;;;;;;3.28;1.60;;;;;;;;;;5012944;28;20029;-74
2022/07/07 02:21:34;;;;;;;2.65;1.40;;;;;;;;;;5012679;28;20076;-74
2022/07/07 02:24:00;;;;;;;3.20;1.55;;;;;;;;;;5012908;28;20054;-74
2022/07/07 02:26:27;;;;;;;4.95;1.60;;;;;;;;;;5012771;28;20026;-73
2022/07/07 02:28:53;;;;;;;5.57;2.00;;;;;;;;;;5012528;28;20037;-74
2022/07/07 02:31:19;;;;;;;4.28;1.58;;;;;;;;;;5012593;28;20041;-74
2022/07/07 02:33:45;;;;;;;5.47;1.77;;;;;;;;;;5012645;28;20026;-74
2022/07/07 02:36:11;;;;;;;6.40;1.67;;;;;;;;;;5012489;28;20065;-74
2022/07/07 02:38:38;;;;;;;2.83;2.00;;;;;;;;;;5012652;28;20061;-74
2022/07/07 02:41:05;;;;;;;5.07;2.20;;;;;;;;;;5011588;28;20021;-74
2022/07/07 02:43:31;;;;;;;5.65;1.70;;;;;;;;;;5012609;28;20109;-74
2022/07/07 02:45:57;;;;;;;6.35;1.98;;;;;;;;;;5012211;28;20160;-74
2022/07/07 02:48:25;;;;;;;7.20;2.05;;;;;;;;;;5012400;28;20026;-74
2022/07/07 02:50:51;;;;;;;5.47;2.42;;;;;;;;;;5012098;28;20101;-74
2022/07/07 02:53:18;;;;;;;3.80;2.13;;;;;;;;;;5012390;28;20393;-74
2022/07/07 02:55:44;;;;;;;7.93;2.40;;;;;;;;;;5012350;28;20054;-74
2022/07/07 02:58:12;;;;;;;6.68;2.35;;;;;;;;;;5012353;28;20034;-74
2022/07/07 03:00:38;;;;;;;4.30;2.63;;;;;;;;;;5012193;28;20029;-74
2022/07/07 03:03:05;;;;;;;3.17;2.22;;;;;;;;;;5012198;28;20045;-74
2022/07/07 03:05:31;;;;;;;8.45;2.88;;;;;;;;;;5012056;28;20025;-73
2022/07/07 03:07:57;;;;;;;7.20;2.78;;;;;;;;;;5019142;28;20029;-74
2022/07/07 03:10:24;;;;;;;6.40;3.03;;;;;;;;;;5031921;28;20029;-73
2022/07/07 03:12:50;;;;;;;5.90;2.90;;;;;;;;;;5031927;28;20030;-73
2022/07/07 03:15:16;;;;;;;6.88;3.20;;;;;;;;;;5031589;28;20116;-73
2022/07/07 03:17:43;;;;;;;5.00;2.92;;;;;;;;;;5022679;28;20029;-74
2022/07/07 03:20:10;;;;;;;8.25;3.08;;;;;;;;;;5011918;28;20034;-74
2022/07/07 03:22:37;;;;;;;8.70;3.13;;;;;;;;;;5012099;28;20030;-73
2022/07/07 03:25:03;;;;;;;6.10;2.70;;;;;;;;;;5011962;28;20084;-74
2022/07/07 03:27:29;;;;;;;6.15;3.40;;;;;;;;;;5011969;28;20357;-73
2022/07/07 03:29:55;;;;;;;9.38;3.50;;;;;;;;;;5011729;28;20060;-73
2022/07/07 03:32:21;;;;;;;5.43;3.30;;;;;;;;;;5011830;28;20030;-74
2022/07/07 03:34:47;;;;;;;8.23;3.50;;;;;;;;;;5011821;28;20022;-74
2022/07/07 03:37:13;;;;;;;9.02;3.97;;;;;;;;;;5011905;28;20492;-74
2022/07/07 03:39:39;;;;;;;5.28;3.45;;;;;;;;;;5011949;28;20085;-74
2022/07/07 03:42:06;;;;;;;14.75;4.07;;;;;;;;;;5011983;28;20033;-73
2022/07/07 03:44:32;;;;;;;6.93;3.42;;;;;;;;;;5011903;28;20030;-74
2022/07/07 03:46:58;;;;;;;7.05;4.10;;;;;;;;;;5010503;28;20049;-74
2022/07/07 03:49:24;;;;;;;11.70;4.32;;;;;;;;;;5011808;28;20068;-73
2022/07/07 03:51:50;;;;;;;8.38;3.92;;;;;;;;;;5012650;28;20064;-74
2022/07/07 03:54:16;;;;;;;5.07;3.53;;;;;;;;;;5015666;28;20109;-74
2022/07/07 03:56:42;;;;;;;9.82;3.80;;;;;;;;;;5015504;28;20038;-74
2022/07/07 03:59:08;;;;;;;8.05;3.88;;;;;;;;;;5015592;28;20026;-74
2022/07/07 04:01:34;;;;;;;6.88;3.70;;;;;;;;;;5015325;28;20464;-74
2022/07/07 04:04:01;;;;;;;7.38;3.95;;;;;;;;;;5015204;28;20033;-74
2022/07/07 04:06:30;;;;;;;6.40;3.70;;;;;;;;;;5015217;28;20028;-74
2022/07/07 04:08:56;;;;;;;8.95;3.15;;;;;;;;;;5031668;28;20021;-74
2022/07/07 04:11:22;;;;;;;5.47;2.42;;;;;;;;;;5035247;28;20456;-73
2022/07/07 04:13:48;;;;;;;9.90;3.13;;;;;;;;;;5034991;28;20037;-73
2022/07/07 04:16:14;;;;;;;6.22;2.75;;;;;;;;;;5034691;28;20060;-74
2022/07/07 04:18:40;;;;;;;7.75;2.60;;;;;;;;;;5017938;28;20037;-73
2022/07/07 04:21:06;;;;;;;10.00;2.65;;;;;;;;;;5013545;28;20025;-74
2022/07/07 04:23:32;;;;;;;10.68;2.50;;;;;;;;;;5013685;28;20038;-73
2022/07/07 04:25:58;;;;;;;7.50;1.48;;;;;;;;;;5015051;28;20032;-74
2022/07/07 04:28:24;;;;;;;13.98;1.88;;;;;;;;;;5014898;28;20092;-73
2022/07/07 04:30:50;;;;;;;4.55;1.40;;;;;;;;;;5014628;28;20049;-73
2022/07/07 04:33:17;;;;;;;6.93;1.88;;;;;;;;;;5014869;28;20026;-73
2022/07/07 04:35:43;;;;;;;5.50;1.58;;;;;;;;;;5014700;28;20018;-73
2022/07/07 04:38:09;;;;;;;6.65;1.67;;;;;;;;;;5014824;28;20105;-73
2022/07/07 04:40:35;;;;;;;8.48;1.23;;;;;;;;;;5014679;28;20061;-73
2022/07/07 04:43:01;;;;;;;5.85;1.60;;;;;;;;;;5014756;28;20433;-73
2022/07/07 04:45:28;;;;;;;13.43;1.40;;;;;;;;;;5014417;28;20101;-74
2022/07/07 04:47:54;;;;;;;5.20;1.02;;;;;;;;;;5014656;28;20240;-73
2022/07/07 04:50:20;;;;;;;6.15;1.20;;;;;;;;;;5014477;28;20120;-74
2022/07/07 04:52:46;;;;;;;10.00;2.00;;;;;;;;;;5014527;28;20025;-73
2022/07/07 04:55:12;;;;;;;5.60;1.20;;;;;;;;;;5014445;28;20376;-73
2022/07/07 04:57:38;;;;;;;7.28;1.42;;;;;;;;;;5014502;28;20034;-73
2022/07/07 05:00:04;;;;;;;8.43;1.25;;;;;;;;;;5014217;28;20025;-73
2022/07/07 05:02:30;;;;;;;12.23;1.15;;;;;;;;;;5014364;28;20151;-73
2022/07/07 05:04:57;;;;;;;7.28;1.27;;;;;;;;;;5013155;28;20481;-73
2022/07/07 05:07:23;;;;;;;8.98;1.20;;;;;;;;;;5017979;28;20021;-73
2022/07/07 05:09:49;;;;;;;13.00;1.10;;;;;;;;;;5033688;28;20031;-73
2022/07/07 05:12:15;;;;;;;8.60;1.08;;;;;;;;;;5033951;28;20029;-73
2022/07/07 05:14:43;;;;;;;10.23;1.30;;;;;;;;;;5033652;28;20567;-73
2022/07/07 05:17:09;;;;;;;13.77;1.30;;;;;;;;;;5029085;28;20018;-73
2022/07/07 05:19:35;;;;;;;10.35;1.52;;;;;;;;;;5013831;28;20040;-73
2022/07/07 05:22:01;;;;;;;9.38;2.13;;;;;;;;;;5013682;28;20018;-73
2022/07/07 05:24:27;;;;;;;12.65;1.33;;;;;;;;;;5013694;28;20061;-73
2022/07/07 05:26:53;;;;;;;11.00;1.30;;;;;;;;;;5013750;28;20022;-73
2022/07/07 05:29:19;;;;;;;10.57;1.23;;;;;;;;;;5013594;28;20129;-73
2022/07/07 05:31:45;;;;;;;12.07;1.35;;;;;;;;;;5012256;28;20459;-73
2022/07/07 05:34:11;;;;;;;11.23;1.17;;;;;;;;;;5013720;28;20073;-73
2022/07/07 05:36:37;;;;;;;8.50;1.10;;;;;;;;;;5013375;28;20113;-73
2022/07/07 05:39:03;;;;;;;15.48;1.67;;;;;;;;;;5013506;28;20037;-73
2022/07/07 05:41:29;;;;;;;13.98;1.90;;;;;;;;;;5013501;28;20108;-74
2022/07/07 05:43:55;;;;;;;13.32;1.60;;;;;;;;;;5013468;28;20113;-73
2022/07/07 05:46:21;;;;;;;11.60;1.15;;;;;;;;;;5013203;28;20021;-73
2022/07/07 05:48:47;;;;;;;10.90;1.50;;;;;;;;;;5013434;28;20137;-73
2022/07/07 05:51:13;;;;;;;9.20;1.30;;;;;;;;;;5013119;28;20097;-73
2022/07/07 05:53:39;;;;;;;9.68;1.30;;;;;;;;;;5013487;28;20097;-73
2022/07/07 05:56:05;;;;;;;10.85;1.30;;;;;;;;;;5011928;28;20026;-73
2022/07/07 05:58:32;;;;;;;8.18;1.25;;;;;;;;;;5013397;28;20065;-73
2022/07/07 06:00:58;;;;;;;10.82;1.13;;;;;;;;;;5013151;28;20080;-74
2022/07/07 06:03:24;;;;;;;13.65;1.27;;;;;;;;;;5013215;28;20030;-73
2022/07/07 06:05:50;;;;;;;9.40;1.60;;;;;;;;;;5013041;28;20033;-73
2022/07/07 06:08:17;;;;;;;8.82;0.95;;;;;;;;;;5024008;28;20040;-73
2022/07/07 06:10:44;;;;;;;7.57;1.10;;;;;;;;;;5033029;28;20109;-73
2022/07/07 06:13:10;;;;;;;9.57;1.48;;;;;;;;;;5032774;28;20072;-73
2022/07/07 06:15:36;;;;;;;11.23;0.88;;;;;;;;;;5032351;28;20037;-73
2022/07/07 06:18:03;;;;;;;8.07;1.52;;;;;;;;;;5020960;28;20026;-73
2022/07/07 06:20:29;;;;;;;5.07;1.20;;;;;;;;;;5012804;28;20028;-73
2022/07/07 06:22:55;;;;;;;9.43;1.20;;;;;;;;;;5012844;28;20038;-73
2022/07/07 06:25:21;;;;;;;10.23;1.38;;;;;;;;;;5012865;28;20086;-73
2022/07/07 06:27:47;;;;;;;6.72;1.20;;;;;;;;;;5012724;28;20131;-73
2022/07/07 06:30:13;;;;;;;6.78;1.42;;;;;;;;;;5012441;28;20145;-73
2022/07/07 06:32:40;;;;;;;7.13;1.35;;;;;;;;;;5012809;28;20076;-74
2022/07/07 06:35:06;;;;;;;5.57;0.98;;;;;;;;;;5012435;28;20029;-73
2022/07/07 06:37:32;;;;;;;7.57;1.10;;;;;;;;;;5012707;28;20121;-74
2022/07/07 06:39:58;;;;;;;8.40;1.55;;;;;;;;;;5012461;28;20479;-73
2022/07/07 06:42:24;;;;;;;9.70;1.15;;;;;;;;;;5012699;28;20037;-73
2022/07/07 06:44:50;;;;;;;5.70;0.93;;;;;;;;;;5012418;28;20025;-74
2022/07/07 06:47:17;;;;;;;6.47;1.00;;;;;;;;;;5012413;28;20032;-74
2022/07/07 06:49:43;;;;;;;6.88;0.90;;;;;;;;;;5012421;28;20060;-74
2022/07/07 06:52:09;;;;;;;6.93;0.93;;;;;;;;;;5012292;28;20033;-73
2022/07/07 06:54:38;;;;;;;5.50;0.98;;;;;;;;;;5012271;28;20033;-74
2022/07/07 06:57:04;;;;;;;11.85;1.48;;;;;;;;;;5012379;28;20050;-74
2022/07/07 06:59:30;;;;;;;5.03;1.17;;;;;;;;;;5012330;28;20105;-73
2022/07/07 07:01:56;;;;;;;9.77;1.63;;;;;;;;;;5012036;28;20026;-74
2022/07/07 07:04:22;;;;;;;6.53;1.10;;;;;;;;;;5012167;28;20077;-73
2022/07/07 07:06:48;;;;;;;8.90;0.82;;;;;;;;;;5012106;28;20132;-73
2022/07/07 07:09:14;;;;;;;4.10;1.05;;;;;;;;;;5030881;28;20037;-73
2022/07/07 07:11:41;;;;;;;7.55;0.80;;;;;;;;;;5032261;28;20040;-74
2022/07/07 07:14:07;;;;;;;4.13;0.63;;;;;;;;;;5031837;28;20041;-73
2022/07/07 07:16:33;;;;;;;2.35;0.60;;;;;;;;;;5031663;28;20025;-73
2022/07/07 07:18:59;;;;;;;4.57;0.47;;;;;;;;;;5012343;28;20029;-74
2022/07/07 07:21:25;;;;;;;5.65;0.65;;;;;;;;;;5011951;28;20030;-73
2022/07/07 07:23:51;;;;;;;3.28;0.77;;;;;;;;;;5012050;28;20030;-73
2022/07/07 07:26:17;;;;;;;5.07;0.70;;;;;;;;;;5011999;28;20092;-74
2022/07/07 07:28:43;;;;;;;5.60;0.93;;;;;;;;;;5015956;28;20423;-74
2022/07/07 07:31:09;;;;;;;7.32;1.00;;;;;;;;;;5015589;28;20484;-73
2022/07/07 07:33:35;;;;;;;6.68;1.13;;;;;;;;;;5015918;28;20046;-74
2022/07/07 07:36:02;;;;;;;5.45;1.10;;;;;;;;;;5015934;28;20026;-74
2022/07/07 07:38:28;;;;;;;9.25;1.40;;;;;;;;;;5015941;28;20034;-73
2022/07/07 07:40:54;;;;;;;8.77;1.20;;;;;;;;;;5015805;28;20033;-74
2022/07/07 07:43:20;;;;;;;11.55;1.60;;;;;;;;;;5014588;28;20034;-74
2022/07/07 07:45:46;;;;;;;6.85;0.80;;;;;;;;;;5015456;28;20381;-73
2022/07/07 07:48:12;;;;;;;7.90;1.30;;;;;;;;;;5015796;28;20109;-74
2022/07/07 07:50:39;;;;;;;6.80;1.52;;;;;;;;;;5015593;28;20054;-73
2022/07/07 07:53:05;;;;;;;5.80;1.13;;;;;;;;;;5015718;28;20014;-73
2022/07/07 07:55:32;;;;;;;7.80;1.23;;;;;;;;;;5014257;28;20022;-74
2022/07/07 07:57:58;;;;;;;7.78;0.90;;;;;;;;;;5015584;28;20044;-73
2022/07/07 08:00:25;;;;;;;10.00;1.33;;;;;;;;;;5015322;28;20022;-74
2022/07/07 08:02:51;;;;;;;10.32;1.17;;;;;;;;;;5014158;28;20034;-73
2022/07/07 08:05:18;;;;;;;6.43;0.95;;;;;;;;;;5015229;28;20030;-74
2022/07/07 08:07:44;;;;;;;11.68;1.10;;;;;;;;;;5021807;28;20060;-74
2022/07/07 08:10:11;;;;;;;4.90;0.82;;;;;;;;;;5035109;28;20470;-73
2022/07/07 08:12:38;;;;;;;5.80;0.85;;;;;;;;;;5034987;28;20100;-74
2022/07/07 08:15:05;;;;;;;5.30;0.90;;;;;;;;;;5034784;28;20022;-74
2022/07/07 08:17:31;;;;;;;7.22;1.00;;;;;;;;;;5027395;28;20014;-73
2022/07/07 08:19:57;;;;;;;3.53;0.65;;;;;;;;;;5015026;28;20165;-74
2022/07/07 08:22:23;;;;;;;2.88;0.60;;;;;;;;;;5015077;28;20026;-74
2022/07/07 08:24:49;;;;;;;2.63;0.50;;;;;;;;;;5015001;28;20083;-74
2022/07/07 08:27:15;;;;;;;2.60;0.30;;;;;;;;;;5014940;28;20104;-73
2022/07/07 08:29:42;;;;;;;1.63;0.30;;;;;;;;;;5014668;28;20065;-74
2022/07/07 08:32:08;;;;;;;4.13;0.57;;;;;;;;;;5014682;28;20026;-74
2022/07/07 08:34:35;;;;;;;2.22;0.30;;;;;;;;;;5014753;28;20441;-74
2022/07/07 08:37:02;;;;;;;2.28;0.30;;;;;;;;;;5014712;28;20642;-74
2022/07/07 08:39:28;;;;;;;4.47;0.60;;;;;;;;;;5014671;28;20026;-73
2022/07/07 08:41:54;;;;;;;4.03;0.60;;;;;;;;;;5014628;28;20021;-73
2022/07/07 08:44:21;;;;;;;2.63;0.70;;;;;;;;;;5014630;28;20471;-74
2022/07/07 08:46:47;;;;;;;2.60;0.30;;;;;;;;;;5014460;28;20035;-74
2022/07/07 08:49:13;;;;;;;3.88;0.60;;;;;;;;;;5014448;28;20026;-74
2022/07/07 08:51:41;;;;;;;4.32;0.70;;;;;;;;;;5014367;28;20034;-73
2022/07/07 08:54:09;;;;;;;3.80;0.65;;;;;;;;;;5013061;28;20436;-73
2022/07/07 08:56:35;;;;;;;2.00;0.50;;;;;;;;;;5014405;28;20431;-73
2022/07/07 08:59:01;;;;;;;3.10;0.65;;;;;;;;;;5014504;28;20298;-73
2022/07/07 09:01:27;;;;;;;1.13;0.32;;;;;;;;;;5014229;28;20112;-73
2022/07/07 09:03:54;;;;;;;5.13;0.77;;;;;;;;;;5014319;28;20101;-73
2022/07/07 09:06:20;;;;;;;5.10;0.47;;;;;;;;;;5014138;28;20430;-74
2022/07/07 09:08:46;;;;;;;3.00;0.40;;;;;;;;;;5029077;28;20423;-73
2022/07/07 09:11:12;;;;;;;2.92;0.40;;;;;;;;;;5034180;28;20037;-73
2022/07/07 09:13:38;;;;;;;7.15;0.50;;;;;;;;;;5033853;28;20025;-73
2022/07/07 09:16:05;;;;;;;2.60;0.70;;;;;;;;;;5033646;28;20383;-73
2022/07/07 09:18:32;;;;;;;1.90;0.40;;;;;;;;;;5016836;28;20030;-73
2022/07/07 09:20:58;;;;;;;5.90;0.63;;;;;;;;;;5013829;28;20033;-73
2022/07/07 09:23:25;;;;;;;3.53;0.60;;;;;;;;;;5013955;28;20041;-74
2022/07/07 09:25:51;;;;;;;4.80;0.68;;;;;;;;;;5013942;28;20060;-74
2022/07/07 09:28:17;;;;;;;6.38;0.70;;;;;;;;;;5013755;28;20030;-73
2022/07/07 09:30:45;;;;;;;4.75;0.60;;;;;;;;;;5012072;28;20046;-73
2022/07/07 09:33:12;;;;;;;5.45;1.00;;;;;;;;;;5013769;28;20101;-74
2022/07/07 09:38:25;;;;;;;3.13;0.55;;;;;;;;;;5013958;28;20602;-74
2022/07/07 09:40:51;;;;;;;2.40;0.50;;;;;;;;;;5013546;28;20084;-74
2022/07/07 09:43:18;;;;;;;4.00;0.70;;;;;;;;;;5013573;28;20032;-73
2022/07/07 09:45:46;;;;;;;6.50;0.90;;;;;;;;;;5013235;28;20041;-73
2022/07/07 09:48:13;;;;;;;5.47;0.65;;;;;;;;;;5013490;28;20465;-73
2022/07/07 09:50:39;;;;;;;2.40;0.55;;;;;;;;;;5012641;28;20440;-73
2022/07/07 09:53:08;;;;;;;3.20;0.98;;;;;;;;;;5013452;28;20128;-75
2022/07/07 09:55:34;;;;;;;7.00;0.52;;;;;;;;;;5013301;28;20119;-74
2022/07/07 09:58:00;;;;;;;6.22;0.82;;;;;;;;;;5013324;28;20029;-74
2022/07/07 10:00:26;;;;;;;3.72;0.80;;;;;;;;;;5011767;28;20040;-74
2022/07/07 10:02:54;;;;;;;3.00;0.60;;;;;;;;;;5013228;28;20040;-74
2022/07/07 10:05:21;;;;;;;5.93;0.80;;;;;;;;;;5012947;28;20424;-74
2022/07/07 10:07:50;;;;;;;4.80;0.52;;;;;;;;;;5019955;28;20018;-74
2022/07/07 10:10:19;;;;;;;1.23;0.30;;;;;;;;;;5032779;28;20026;-74
2022/07/07 10:12:46;;;;;;;1.50;0.40;;;;;;;;;;5032751;28;20029;-74
2022/07/07 10:15:13;;;;;;;1.80;0.40;;;;;;;;;;5032610;28;20092;-74
2022/07/07 10:17:43;;;;;;;2.10;0.50;;;;;;;;;;5024203;28;20030;-74
2022/07/07 10:20:09;;;;;;;3.20;0.50;;;;;;;;;;5012687;28;20030;-74
2022/07/07 10:22:36;;;;;;;1.15;0.52;;;;;;;;;;5012906;28;20083;-74
2022/07/07 10:25:03;;;;;;;4.97;1.05;;;;;;;;;;5012786;28;20126;-74
2022/07/07 10:27:30;;;;;;;5.20;0.73;;;;;;;;;;5011390;28;20022;-74
2022/07/07 10:29:57;;;;;;;3.80;0.70;;;;;;;;;;5012528;28;20062;-74
2022/07/07 10:32:50;;;;;;;3.58;0.85;;;;;;;;;;5012742;28;20476;-74
2022/07/07 10:35:17;;;;;;;4.85;0.93;;;;;;;;;;5011181;28;20092;-74
2022/07/07 10:37:47;;;;;;;4.03;0.82;;;;;;;;;;5012672;28;20065;-74
2022/07/07 10:40:18;;;;;;;3.92;1.02;;;;;;;;;;5012471;28;20061;-74
2022/07/07 10:43:03;;;;;;;3.05;0.85;;;;;;;;;;5012566;28;20025;-74
2022/07/07 10:45:29;;;;;;;4.30;1.20;;;;;;;;;;5012135;28;20026;-74
2022/07/07 10:47:55;;;;;;;4.00;1.00;;;;;;;;;;5012362;28;20030;-74
2022/07/07 10:50:24;;;;;;;3.90;0.93;;;;;;;;;;5012262;28;20507;-74
2022/07/07 10:52:50;;;;;;;5.88;1.13;;;;;;;;;;5012409;28;20050;-74
2022/07/07 10:55:16;;;;;;;3.50;0.80;;;;;;;;;;5012247;28;20018;-74
2022/07/07 10:57:43;;;;;;;2.85;1.10;;;;;;;;;;5012430;28;20034;-74
2022/07/07 11:00:12;;;;;;;3.30;0.82;;;;;;;;;;5012125;28;20026;-74
2022/07/07 11:02:41;;;;;;;5.00;1.10;;;;;;;;;;5011541;28;20361;-74
2022/07/07 11:05:10;;;;;;;3.70;0.93;;;;;;;;;;5012064;28;20100;-74
2022/07/07 11:07:36;;;;;;;4.40;1.00;;;;;;;;;;5017552;28;20025;-74
2022/07/07 11:10:04;;;;;;;4.13;0.88;;;;;;;;;;5031884;28;20105;-74
2022/07/07 11:12:39;;;;;;;9.20;0.90;;;;;;;;;;5031792;28;20021;-74
2022/07/07 11:15:15;;;;;;;3.83;0.70;;;;;;;;;;5030261;28;20090;-74
2022/07/07 11:17:45;;;;;;;2.33;0.55;;;;;;;;;;5023019;28;20045;-74
2022/07/07 11:20:14;;;;;;;6.28;0.90;;;;;;;;;;5011860;28;20117;-74
2022/07/07 11:22:44;;;;;;;2.40;0.60;;;;;;;;;;5012118;28;20026;-74
2022/07/07 11:25:11;;;;;;;3.25;0.70;;;;;;;;;;5010515;28;20424;-74
2022/07/07 11:27:38;;;;;;;3.28;0.90;;;;;;;;;;5011935;28;20491;-75
2022/07/07 11:30:04;;;;;;;4.47;0.70;;;;;;;;;;5011574;28;20092;-74
2022/07/07 11:32:37;;;;;;;2.30;0.47;;;;;;;;;;5011947;28;20104;-73
2022/07/07 11:35:07;;;;;;;2.83;0.40;;;;;;;;;;5011704;28;20034;-74
2022/07/07 11:37:33;;;;;;;3.25;0.57;;;;;;;;;;5011893;28;20030;-74
2022/07/07 11:40:00;;;;;;;2.28;0.70;;;;;;;;;;5011727;28;20026;-75
2022/07/07 11:42:27;;;;;;;4.28;0.60;;;;;;;;;;5010638;28;20037;-73
2022/07/07 11:44:53;;;;;;;2.50;0.70;;;;;;;;;;5011450;28;20018;-74
2022/07/07 11:47:19;;;;;;;3.28;0.73;;;;;;;;;;5011455;28;20022;-74
2022/07/07 11:49:45;;;;;;;2.45;0.60;;;;;;;;;;5011412;28;20037;-74
2022/07/07 11:52:12;;;;;;;2.78;0.80;;;;;;;;;;5011325;28;20026;-74
2022/07/07 11:54:48;;;;;;;2.17;0.80;;;;;;;;;;5011299;28;20105;-74
2022/07/07 11:57:31;;;;;;;11.02;1.02;;;;;;;;;;5011566;28;20029;-74
2022/07/07 12:00:17;;;;;;;7.18;1.10;;;;;;;;;;5010032;28;20022;-74
2022/07/07 12:02:44;;;;;;;4.55;1.20;;;;;;;;;;5011469;28;20124;-74
2022/07/07 12:05:11;;;;;;;4.85;1.00;;;;;;;;;;5011235;28;20025;-74
2022/07/07 12:07:37;;;;;;;10.05;1.45;;;;;;;;;;5016812;28;20113;-74
2022/07/07 12:10:03;;;;;;;7.90;1.60;;;;;;;;;;5031095;28;20026;-74
2022/07/07 12:12:29;;;;;;;9.10;1.40;;;;;;;;;;5031372;28;20384;-74
2022/07/07 12:14:55;;;;;;;8.55;1.40;;;;;;;;;;5034735;28;20075;-74
2022/07/07 12:17:39;;;;;;;11.20;1.85;;;;;;;;;;5028569;28;20026;-74
2022/07/07 12:20:05;;;;;;;8.73;1.58;;;;;;;;;;5014824;28;20358;-74
2022/07/07 12:22:35;;;;;;;10.35;1.70;;;;;;;;;;5013961;28;20428;-74
2022/07/07 12:25:06;;;;;;;12.35;1.73;;;;;;;;;;5015024;28;20037;-74
2022/07/07 12:27:32;;;;;;;7.70;1.65;;;;;;;;;;5014895;28;20152;-75
2022/07/07 12:29:59;;;;;;;14.18;2.38;;;;;;;;;;5014642;28;20061;-74
2022/07/07 12:32:25;;;;;;;11.93;2.05;;;;;;;;;;5013517;28;20739;-74
2022/07/07 12:34:51;;;;;;;12.90;2.10;;;;;;;;;;5013405;28;20361;-74
2022/07/07 12:37:17;;;;;;;13.68;2.20;;;;;;;;;;5014714;28;20030;-74
2022/07/07 12:39:43;;;;;;;11.73;1.50;;;;;;;;;;5014753;28;20030;-74
2022/07/07 12:42:09;;;;;;;12.63;1.70;;;;;;;;;;5014774;28;20423;-74
2022/07/07 12:44:35;;;;;;;10.93;1.85;;;;;;;;;;5014530;28;20048;-74
2022/07/07 12:47:02;;;;;;;12.60;1.70;;;;;;;;;;5014638;28;20445;-74
2022/07/07 12:49:28;;;;;;;13.55;1.73;;;;;;;;;;5014554;28;20033;-74
2022/07/07 12:51:55;;;;;;;12.32;2.40;;;;;;;;;;5014425;28;20054;-74
2022/07/07 12:54:21;;;;;;;16.63;1.73;;;;;;;;;;5014811;28;20505;-74
2022/07/07 12:56:56;;;;;;;11.70;1.70;;;;;;;;;;5013206;28;20030;-74
2022/07/07 12:59:23;;;;;;;14.00;2.28;;;;;;;;;;5013258;28;20037;-74
2022/07/07 13:01:52;;;;;;;12.85;1.75;;;;;;;;;;5014379;28;20088;-74
2022/07/07 13:04:19;;;;;;;19.92;1.85;;;;;;;;;;5014476;28;20026;-74
2022/07/07 13:06:46;;;;;;;14.10;2.38;;;;;;;;;;5014364;28;20436;-74
2022/07/07 13:09:12;;;;;;;10.27;1.40;;;;;;;;;;5032714;28;20098;-74
2022/07/07 13:11:38;;;;;;;12.60;1.48;;;;;;;;;;5033892;28;20040;-74
2022/07/07 13:14:04;;;;;;;18.13;3.60;;;;;;;;;;5033995;28;20076;-73
2022/07/07 13:16:30;;;;;;;10.77;2.20;;;;;;;;;;5033887;28;20025;-74
2022/07/07 13:18:56;;;;;;;9.80;1.58;;;;;;;;;;5014784;28;20460;-74
2022/07/07 13:21:22;;;;;;;10.38;1.98;;;;;;;;;;5013875;28;20041;-74
2022/07/07 13:23:48;;;;;;;14.05;1.67;;;;;;;;;;5013800;28;20328;-74
2022/07/07 13:26:14;;;;;;;12.13;1.75;;;;;;;;;;5013432;28;20034;-74
2022/07/07 13:28:41;;;;;;;10.98;1.40;;;;;;;;;;5013974;28;20040;-74
2022/07/07 13:31:07;;;;;;;9.35;1.60;;;;;;;;;;5013540;28;20046;-74
2022/07/07 13:33:33;;;;;;;7.32;1.33;;;;;;;;;;5013991;28;20104;-74
2022/07/07 13:35:59;;;;;;;8.23;1.30;;;;;;;;;;5013705;28;20026;-74
2022/07/07 13:38:25;;;;;;;9.23;1.10;;;;;;;;;;5013804;28;20037;-73
2022/07/07 13:40:54;;;;;;;8.55;1.60;;;;;;;;;;5013615;28;20033;-73
2022/07/07 13:43:20;;;;;;;9.75;1.75;;;;;;;;;;5013740;28;20109;-73
2022/07/07 13:45:46;;;;;;;8.35;1.30;;;;;;;;;;5013383;28;20056;-73
2022/07/07 13:48:12;;;;;;;9.50;1.45;;;;;;;;;;5013507;28;20065;-73
2022/07/07 13:50:39;;;;;;;7.90;1.08;;;;;;;;;;5013382;28;20022;-73
2022/07/07 13:53:05;;;;;;;8.82;1.55;;;;;;;;;;5013446;28;20464;-73
2022/07/07 13:55:31;;;;;;;4.93;0.82;;;;;;;;;;5013012;28;20801;-73
2022/07/07 13:57:57;;;;;;;4.28;1.13;;;;;;;;;;5013220;28;20380;-73
2022/07/07 14:00:23;;;;;;;6.00;1.10;;;;;;;;;;5013034;28;20057;-73
2022/07/07 14:02:50;;;;;;;8.18;1.17;;;;;;;;;;5012054;28;20034;-73
2022/07/07 14:05:16;;;;;;;8.93;1.23;;;;;;;;;;5012895;28;20021;-73
2022/07/07 14:07:43;;;;;;;5.55;1.10;;;;;;;;;;5019243;28;20082;-73
2022/07/07 14:10:09;;;;;;;6.72;1.38;;;;;;;;;;5032695;28;20037;-73
2022/07/07 14:12:35;;;;;;;11.85;1.35;;;;;;;;;;5032748;28;20097;-73
2022/07/07 14:15:01;;;;;;;9.50;1.23;;;;;;;;;;5032550;28;20025;-73
2022/07/07 14:17:27;;;;;;;6.57;1.20;;;;;;;;;;5025836;28;20372;-73
2022/07/07 14:19:54;;;;;;;13.73;1.55;;;;;;;;;;5012825;28;20160;-73
2022/07/07 14:22:20;;;;;;;11.05;1.38;;;;;;;;;;5012800;28;20473;-73
2022/07/07 14:24:46;;;;;;;8.48;1.35;;;;;;;;;;5012704;28;20079;-73
2022/07/07 14:27:12;;;;;;;8.50;1.38;;;;;;;;;;5013003;28;20025;-73
2022/07/07 14:29:38;;;;;;;12.75;1.50;;;;;;;;;;5012728;28;20381;-73
2022/07/07 14:32:05;;;;;;;11.98;2.38;;;;;;;;;;5012856;28;20053;-73
2022/07/07 14:34:31;;;;;;;11.80;1.73;;;;;;;;;;5012897;28;20040;-73
2022/07/07 14:36:58;;;;;;;14.57;1.73;;;;;;;;;;5012449;28;20056;-73